Time;durP1;ratioP1;P1;durP2;ratioP2;P2;SDS_P1;SDS_P2;PMS_P1;PMS_P2;Temp;Humidity;BMP_temperature;BMP_pressure;BME280_temperature;BME280_humidity;BME280_pressure;Samples;Min_cycle;Max_cycle;Signal;HPM_P1;HPM_P2
2022/05/06 00:01:17;;;;;;;2.67;2.22;;;10.30;77.70;;;;;;627833;229;26816;-76
2022/05/06 00:03:45;;;;;;;3.22;2.22;;;10.30;78.70;;;;;;627336;226;26630;-76
2022/05/06 00:06:13;;;;;;;2.67;2.17;;;10.20;79.80;;;;;;627188;229;26887;-76
2022/05/06 00:08:40;;;;;;;3.75;2.22;;;10.20;78.80;;;;;;627005;229;26559;-76
2022/05/06 00:11:07;;;;;;;2.33;2.10;;;10.20;79.50;;;;;;626875;229;26831;-77
2022/05/06 00:13:35;;;;;;;3.22;2.05;;;10.10;79.50;;;;;;626840;229;26624;-76
2022/05/06 00:16:03;;;;;;;2.10;1.80;;;10.10;80.00;;;;;;626835;229;26953;-76
2022/05/06 00:18:30;;;;;;;2.47;2.25;;;10.00;79.90;;;;;;626468;229;26554;-76
2022/05/06 00:20:56;;;;;;;4.18;2.50;;;9.90;82.70;;;;;;626594;229;26828;-76
2022/05/06 00:23:24;;;;;;;3.25;1.90;;;9.90;82.20;;;;;;626516;229;26578;-76
2022/05/06 00:25:51;;;;;;;3.25;2.00;;;9.90;82.80;;;;;;626566;229;27093;-76
2022/05/06 00:28:21;;;;;;;2.17;1.90;;;9.80;83.80;;;;;;626541;229;26547;-76
2022/05/06 00:30:47;;;;;;;3.28;2.33;;;9.70;83.80;;;;;;626399;229;26546;-76
2022/05/06 00:33:14;;;;;;;4.57;2.25;;;9.70;83.80;;;;;;626473;229;26575;-77
2022/05/06 00:35:41;;;;;;;2.22;2.12;;;9.70;84.20;;;;;;626396;229;26560;-76
2022/05/06 00:38:09;;;;;;;2.50;2.30;;;9.70;85.20;;;;;;626248;230;26812;-77
2022/05/06 00:40:36;;;;;;;2.70;2.10;;;9.60;85.20;;;;;;626269;229;26801;-76
2022/05/06 00:43:04;;;;;;;2.58;2.17;;;9.60;85.80;;;;;;626210;230;26586;-76
2022/05/06 00:45:32;;;;;;;2.35;2.00;;;9.60;85.90;;;;;;626202;230;26547;-77
2022/05/06 00:48:00;;;;;;;3.40;2.30;;;9.60;86.60;;;;;;625351;230;26574;-76
2022/05/06 00:50:28;;;;;;;1.92;1.83;;;9.60;86.60;;;;;;626186;230;26562;-76
2022/05/06 00:52:55;;;;;;;3.00;2.37;;;9.60;87.50;;;;;;626194;227;26582;-76
2022/05/06 00:55:23;;;;;;;3.20;2.03;;;9.60;87.20;;;;;;626184;230;26520;-76
2022/05/06 00:57:50;;;;;;;2.30;1.95;;;9.50;87.10;;;;;;626163;230;26562;-76
2022/05/06 01:00:18;;;;;;;2.17;1.87;;;9.60;87.40;;;;;;626220;228;27157;-76
2022/05/06 01:02:46;;;;;;;3.62;2.15;;;9.50;87.90;;;;;;626229;230;26589;-76
2022/05/06 01:05:14;;;;;;;2.08;1.87;;;9.50;87.80;;;;;;626233;230;26554;-76
2022/05/06 01:07:45;;;;;;;3.20;2.15;;;9.50;88.00;;;;;;626254;230;26577;-77
2022/05/06 01:10:12;;;;;;;2.47;2.20;;;9.50;88.00;;;;;;626152;227;26622;-77
2022/05/06 01:12:39;;;;;;;2.45;2.10;;;9.50;88.30;;;;;;627899;228;26542;-76
2022/05/06 01:15:22;;;;;;;2.17;1.87;;;9.50;88.10;;;;;;627371;229;26839;-76
2022/05/06 01:17:49;;;;;;;1.90;1.80;;;9.50;88.40;;;;;;625702;229;26826;-76
2022/05/06 01:20:16;;;;;;;2.45;2.28;;;9.60;88.50;;;;;;627024;229;26568;-76
2022/05/06 01:22:46;;;;;;;2.80;1.98;;;9.50;88.80;;;;;;626676;229;26633;-76
2022/05/06 01:25:14;;;;;;;2.22;2.03;;;9.50;88.80;;;;;;626875;229;27312;-76
2022/05/06 01:27:45;;;;;;;2.22;1.98;;;9.40;88.90;;;;;;626803;229;26624;-76
2022/05/06 01:30:12;;;;;;;2.20;1.90;;;9.40;89.00;;;;;;626480;229;26567;-76
2022/05/06 01:32:40;;;;;;;2.60;1.70;;;9.30;89.00;;;;;;625819;229;26587;-76
2022/05/06 01:35:08;;;;;;;1.98;1.60;;;9.30;89.50;;;;;;626544;229;26532;-76
2022/05/06 01:37:35;;;;;;;2.03;1.90;;;9.30;89.60;;;;;;626486;229;26776;-77
2022/05/06 01:40:04;;;;;;;2.62;2.03;;;9.30;89.80;;;;;;626585;229;26563;-76
2022/05/06 01:42:31;;;;;;;2.17;1.98;;;9.30;90.10;;;;;;626356;229;26570;-76
2022/05/06 01:44:59;;;;;;;2.20;1.90;;;9.30;90.10;;;;;;626415;229;26527;-76
2022/05/06 01:47:27;;;;;;;2.20;1.87;;;9.30;90.50;;;;;;626224;229;26519;-76
2022/05/06 01:49:54;;;;;;;2.67;2.10;;;9.30;90.40;;;;;;626062;230;26847;-76
2022/05/06 01:52:21;;;;;;;2.03;1.92;;;9.30;90.30;;;;;;626170;230;26574;-76
2022/05/06 01:54:48;;;;;;;1.98;1.80;;;9.30;90.40;;;;;;626145;230;26761;-76
2022/05/06 01:57:15;;;;;;;3.62;2.05;;;9.20;90.30;;;;;;626243;230;26560;-74
2022/05/06 01:59:43;;;;;;;3.50;2.00;;;9.20;90.60;;;;;;626258;229;26813;-76
2022/05/06 02:02:10;;;;;;;2.80;2.00;;;9.20;90.70;;;;;;626158;230;26585;-76
2022/05/06 02:07:11;;;;;;;1.70;1.52;;;9.20;90.70;;;;;;626294;230;26574;-75
2022/05/06 02:09:39;;;;;;;2.80;2.28;;;9.20;90.70;;;;;;626261;229;26566;-75
2022/05/06 02:12:07;;;;;;;2.42;2.22;;;9.20;90.90;;;;;;626268;226;26599;-76
2022/05/06 02:14:35;;;;;;;2.20;1.80;;;9.20;90.80;;;;;;626249;230;26629;-76
2022/05/06 02:17:02;;;;;;;2.17;1.80;;;9.30;90.90;;;;;;626231;230;26842;-76
2022/05/06 02:19:29;;;;;;;1.75;1.65;;;9.30;90.80;;;;;;626202;229;26598;-76
2022/05/06 02:21:57;;;;;;;2.28;1.80;;;9.30;91.00;;;;;;626424;227;26827;-76
2022/05/06 02:24:25;;;;;;;2.20;2.00;;;9.40;91.00;;;;;;627881;229;26546;-76
2022/05/06 02:26:52;;;;;;;2.20;2.10;;;9.30;91.00;;;;;;627318;229;26833;-76
2022/05/06 02:29:19;;;;;;;2.47;2.20;;;9.40;90.80;;;;;;627164;229;26575;-76
2022/05/06 02:34:20;;;;;;;2.80;2.05;;;9.40;90.80;;;;;;626862;229;26629;-76
2022/05/06 02:36:46;;;;;;;2.20;2.05;;;9.50;90.90;;;;;;627077;229;26807;-76
2022/05/06 02:39:14;;;;;;;2.22;1.98;;;9.40;91.10;;;;;;627250;229;26585;-76
2022/05/06 02:41:42;;;;;;;3.08;2.08;;;9.30;91.40;;;;;;626644;226;26559;-76
2022/05/06 02:44:10;;;;;;;2.22;2.00;;;9.30;91.40;;;;;;626547;229;26567;-76
2022/05/06 02:46:37;;;;;;;1.87;1.77;;;9.30;91.90;;;;;;626541;229;26560;-76
2022/05/06 02:49:04;;;;;;;2.85;1.83;;;9.20;91.60;;;;;;626593;229;26829;-76
2022/05/06 02:51:32;;;;;;;2.08;1.90;;;9.20;91.50;;;;;;626464;229;26568;-76
2022/05/06 02:54:00;;;;;;;3.30;2.22;;;9.20;91.70;;;;;;626567;229;26562;-76
2022/05/06 02:56:27;;;;;;;1.90;1.80;;;9.20;91.70;;;;;;626559;229;27211;-76
2022/05/06 02:58:55;;;;;;;1.95;1.85;;;9.20;91.70;;;;;;626348;229;26571;-76
2022/05/06 03:01:22;;;;;;;3.80;2.10;;;9.10;92.20;;;;;;626276;230;26879;-76
2022/05/06 03:03:49;;;;;;;4.45;2.22;;;9.10;92.30;;;;;;626344;230;26582;-76
2022/05/06 03:06:16;;;;;;;2.12;1.95;;;9.10;92.30;;;;;;626394;230;26841;-76
2022/05/06 03:08:44;;;;;;;3.62;1.92;;;9.00;92.60;;;;;;626283;229;26551;-76
2022/05/06 03:11:11;;;;;;;2.05;1.95;;;9.00;92.60;;;;;;626233;230;26536;-76
2022/05/06 03:13:38;;;;;;;2.28;1.95;;;9.00;93.10;;;;;;626230;230;26588;-76
2022/05/06 03:16:07;;;;;;;2.87;2.00;;;9.00;93.50;;;;;;626174;230;26856;-76
2022/05/06 03:18:35;;;;;;;3.08;2.12;;;9.00;93.50;;;;;;626267;230;26939;-76
2022/05/06 03:21:01;;;;;;;2.50;1.95;;;9.00;93.30;;;;;;626199;230;26551;-76
2022/05/06 03:23:28;;;;;;;2.28;2.08;;;9.00;93.40;;;;;;626181;227;26840;-76
2022/05/06 03:25:56;;;;;;;2.47;2.08;;;8.90;93.30;;;;;;626150;228;26558;-76
2022/05/06 03:28:24;;;;;;;2.45;2.00;;;8.90;93.30;;;;;;626286;230;26576;-76
2022/05/06 03:30:52;;;;;;;2.15;1.95;;;8.90;93.30;;;;;;626298;230;26575;-76
2022/05/06 03:33:18;;;;;;;2.58;2.15;;;9.00;93.70;;;;;;626203;230;26812;-76
2022/05/06 03:35:45;;;;;;;2.17;1.98;;;8.90;93.60;;;;;;627967;227;26601;-76
2022/05/06 03:38:13;;;;;;;2.55;2.08;;;8.90;93.70;;;;;;627445;229;26869;-76
2022/05/06 03:40:41;;;;;;;3.17;2.15;;;8.90;93.70;;;;;;627142;229;26564;-76
2022/05/06 03:43:08;;;;;;;2.17;2.00;;;8.90;93.80;;;;;;627053;229;26603;-77
2022/05/06 03:45:38;;;;;;;2.10;2.00;;;8.90;93.80;;;;;;626839;229;26842;-76
2022/05/06 03:48:03;;;;;;;3.37;2.30;;;8.90;94.10;;;;;;627210;229;26595;-76
2022/05/06 03:53:03;;;;;;;2.40;2.03;;;9.00;93.60;;;;;;626995;229;26615;-76
2022/05/06 03:55:30;;;;;;;1.98;1.85;;;9.20;93.20;;;;;;626946;229;26774;-76
2022/05/06 03:57:57;;;;;;;2.65;2.17;;;9.30;92.90;;;;;;626988;229;26523;-75
2022/05/06 04:00:26;;;;;;;2.03;1.92;;;9.30;92.80;;;;;;626771;228;26550;-76
2022/05/06 04:02:53;;;;;;;2.20;1.92;;;9.30;92.80;;;;;;626572;229;26579;-75
2022/05/06 04:05:20;;;;;;;3.00;1.95;;;9.30;92.80;;;;;;626545;229;26801;-75
2022/05/06 04:07:47;;;;;;;1.95;1.85;;;9.30;92.60;;;;;;626664;228;26547;-75
2022/05/06 04:10:14;;;;;;;2.10;2.00;;;9.40;92.60;;;;;;626403;228;26796;-75
2022/05/06 04:12:42;;;;;;;3.10;2.12;;;9.40;92.50;;;;;;626272;230;26578;-75
2022/05/06 04:15:09;;;;;;;3.05;2.15;;;9.40;92.50;;;;;;626254;230;26556;-74
2022/05/06 04:17:36;;;;;;;4.47;2.28;;;9.40;92.50;;;;;;626204;230;26566;-74
2022/05/06 04:25:10;;;;;;;2.37;2.12;;;9.50;93.00;;;;;;626234;230;26878;-75
2022/05/06 04:27:37;;;;;;;2.22;2.05;;;9.50;94.50;;;;;;626169;230;26539;-75
2022/05/06 04:30:05;;;;;;;3.75;2.30;;;9.60;94.10;;;;;;626277;229;26834;-74
2022/05/06 04:32:33;;;;;;;2.72;1.98;;;9.60;94.10;;;;;;626278;227;26592;-74
2022/05/06 04:35:00;;;;;;;3.37;2.17;;;9.70;93.30;;;;;;626369;230;26793;-75
2022/05/06 04:37:28;;;;;;;2.10;2.00;;;9.80;92.40;;;;;;626187;230;26560;-75
2022/05/06 04:39:56;;;;;;;2.20;1.90;;;9.90;92.30;;;;;;626223;230;26566;-75
2022/05/06 04:42:24;;;;;;;3.33;1.92;;;10.00;91.80;;;;;;626176;229;26895;-75
2022/05/06 04:44:51;;;;;;;2.67;2.45;;;10.00;91.80;;;;;;626141;230;26756;-75
2022/05/06 04:47:18;;;;;;;2.10;2.00;;;10.10;91.40;;;;;;628034;227;26610;-75
2022/05/06 04:49:45;;;;;;;2.47;2.22;;;10.10;91.10;;;;;;627383;229;26919;-75
2022/05/06 04:52:12;;;;;;;2.15;1.95;;;10.20;91.10;;;;;;627174;229;26590;-75
2022/05/06 04:54:40;;;;;;;2.08;1.98;;;10.30;91.00;;;;;;626997;229;26820;-75
2022/05/06 04:57:07;;;;;;;2.78;2.00;;;10.30;91.00;;;;;;626740;229;26578;-76
2022/05/06 04:59:34;;;;;;;2.92;1.98;;;10.40;91.90;;;;;;626718;229;26618;-75
2022/05/06 05:02:01;;;;;;;2.03;1.90;;;10.50;91.10;;;;;;626672;229;26627;-75
2022/05/06 05:04:30;;;;;;;3.75;2.15;;;10.60;90.70;;;;;;626603;229;26630;-75
2022/05/06 05:06:57;;;;;;;2.83;1.95;;;10.70;90.50;;;;;;626428;229;26559;-75
2022/05/06 05:09:25;;;;;;;4.35;2.20;;;10.70;90.30;;;;;;626565;229;26558;-76
2022/05/06 05:11:54;;;;;;;2.20;1.80;;;10.90;90.60;;;;;;626514;229;26599;-76
2022/05/06 05:14:21;;;;;;;1.92;1.70;;;10.80;90.50;;;;;;626568;229;26791;-76
2022/05/06 05:16:50;;;;;;;2.40;1.92;;;10.90;91.00;;;;;;626560;229;26566;-76
2022/05/06 05:19:15;;;;;;;2.50;2.00;;;11.10;91.00;;;;;;626899;229;26776;-76
2022/05/06 05:21:42;;;;;;;3.30;2.30;;;11.20;90.30;;;;;;626795;229;26544;-76
2022/05/06 05:24:09;;;;;;;2.53;2.33;;;11.30;90.70;;;;;;626360;230;26840;-76
2022/05/06 05:26:36;;;;;;;2.08;1.90;;;11.40;90.80;;;;;;626207;229;26554;-76
2022/05/06 05:29:04;;;;;;;2.90;2.20;;;11.40;88.70;;;;;;626256;230;27233;-75
2022/05/06 05:31:31;;;;;;;2.00;1.80;;;11.50;88.80;;;;;;626138;230;26531;-76
2022/05/06 05:33:58;;;;;;;2.35;2.20;;;11.60;87.90;;;;;;626289;230;26805;-75
2022/05/06 05:36:26;;;;;;;3.53;2.35;;;11.70;86.60;;;;;;626263;230;26551;-75
2022/05/06 05:38:54;;;;;;;2.08;1.87;;;11.80;86.50;;;;;;626307;230;26522;-66
2022/05/06 05:41:22;;;;;;;3.60;2.30;;;11.80;86.40;;;;;;626228;230;26522;-66
2022/05/06 05:48:56;;;;;;;3.33;2.42;;;11.80;84.60;;;;;;626337;230;26571;-66
2022/05/06 05:51:23;;;;;;;3.83;2.58;;;12.00;83.60;;;;;;626196;230;26559;-66
2022/05/06 05:53:51;;;;;;;3.75;2.37;;;12.20;83.50;;;;;;626192;230;26574;-66
2022/05/06 05:56:19;;;;;;;2.53;2.33;;;12.10;83.30;;;;;;626214;230;26559;-66
2022/05/06 05:58:46;;;;;;;3.08;2.35;;;12.30;81.50;;;;;;627971;227;26617;-66
2022/05/06 06:01:14;;;;;;;2.60;2.15;;;12.40;81.10;;;;;;627473;229;26837;-66
2022/05/06 06:03:41;;;;;;;2.90;2.10;;;12.50;80.90;;;;;;627181;229;26544;-67
2022/05/06 06:06:08;;;;;;;6.47;2.28;;;12.60;80.00;;;;;;627074;229;26816;-67
2022/05/06 06:08:35;;;;;;;3.87;2.25;;;12.70;81.20;;;;;;626789;229;26607;-67
2022/05/06 06:11:02;;;;;;;3.12;2.28;;;12.90;79.20;;;;;;626841;229;26854;-67
2022/05/06 06:13:32;;;;;;;2.30;2.10;;;13.00;78.00;;;;;;626769;229;26623;-67
2022/05/06 06:16:00;;;;;;;4.93;2.50;;;13.30;76.00;;;;;;626703;229;26579;-67
2022/05/06 06:18:28;;;;;;;2.70;2.20;;;13.30;74.50;;;;;;626521;229;26556;-67
2022/05/06 06:20:56;;;;;;;6.07;2.62;;;13.30;74.50;;;;;;626579;229;26552;-67
2022/05/06 06:23:24;;;;;;;4.28;2.90;;;13.40;74.40;;;;;;626551;229;26586;-68
2022/05/06 06:25:52;;;;;;;9.77;4.00;;;13.50;74.10;;;;;;622563;229;26567;-68
2022/05/06 06:28:20;;;;;;;9.18;4.53;;;13.70;73.60;;;;;;621155;229;26563;-68
2022/05/06 06:30:47;;;;;;;7.30;4.03;;;13.70;73.50;;;;;;626906;229;26555;-67
2022/05/06 06:33:14;;;;;;;6.20;4.00;;;13.90;72.60;;;;;;623759;229;26581;-68
2022/05/06 06:35:41;;;;;;;8.93;3.65;;;14.00;72.90;;;;;;623463;230;26841;-68
2022/05/06 06:38:09;;;;;;;7.10;3.50;;;14.00;72.20;;;;;;624852;230;26575;-68
2022/05/06 06:40:36;;;;;;;4.87;3.70;;;14.10;72.30;;;;;;624795;230;26878;-68
2022/05/06 06:43:03;;;;;;;5.07;3.40;;;14.30;74.10;;;;;;624754;227;26578;-68
2022/05/06 06:45:30;;;;;;;4.40;3.40;;;14.40;71.50;;;;;;624808;230;26825;-68
2022/05/06 06:47:58;;;;;;;8.10;3.80;;;14.60;71.10;;;;;;624843;230;26555;-68
2022/05/06 06:50:25;;;;;;;6.30;3.55;;;14.60;70.80;;;;;;625136;230;26777;-68
2022/05/06 06:52:52;;;;;;;5.37;3.75;;;14.70;70.10;;;;;;624955;227;26787;-68
2022/05/06 06:55:21;;;;;;;4.90;3.83;;;14.80;71.40;;;;;;624873;230;26544;-66
2022/05/06 06:57:49;;;;;;;6.40;3.65;;;14.80;70.20;;;;;;624799;228;26568;-67
2022/05/06 07:00:17;;;;;;;4.55;3.08;;;14.90;73.10;;;;;;623803;230;26558;-68
2022/05/06 07:02:45;;;;;;;4.37;3.08;;;14.90;73.10;;;;;;624706;227;26586;-68
2022/05/06 07:05:11;;;;;;;2.83;2.50;;;15.00;71.40;;;;;;619473;230;26682;-69
2022/05/06 07:12:44;;;;;;;124.45;27.50;;;15.10;74.00;;;;;;619887;229;26615;-69
2022/05/06 07:15:12;;;;;;;1999.90;293.92;;;15.20;74.50;;;;;;625150;229;26571;-69
2022/05/06 07:17:39;;;;;;;185.10;33.50;;;15.30;73.90;;;;;;618242;233;26811;-69
2022/05/06 07:20:08;;;;;;;122.35;31.50;;;15.40;71.10;;;;;;620765;229;26645;-69
2022/05/06 07:22:35;;;;;;;113.45;30.42;;;15.40;71.20;;;;;;624011;227;26675;-69
2022/05/06 07:25:04;;;;;;;111.88;28.98;;;15.60;70.10;;;;;;625592;229;26607;-69
2022/05/06 07:27:31;;;;;;;113.40;27.90;;;15.50;70.70;;;;;;620868;229;26583;-68
2022/05/06 07:29:58;;;;;;;97.82;25.75;;;15.50;70.40;;;;;;617672;233;26538;-68
2022/05/06 07:32:25;;;;;;;36.30;11.95;;;15.60;70.70;;;;;;617758;231;26574;-67
2022/05/06 07:34:53;;;;;;;20.67;9.48;;;15.70;71.00;;;;;;617721;233;26551;-69
2022/05/06 07:37:21;;;;;;;70.05;20.37;;;15.90;71.90;;;;;;617759;233;26551;-68
2022/05/06 07:39:49;;;;;;;73.87;21.00;;;15.90;69.30;;;;;;617744;232;26558;-68
2022/05/06 07:42:17;;;;;;;51.30;18.10;;;15.70;69.20;;;;;;617711;233;26620;-67
2022/05/06 07:44:45;;;;;;;56.20;16.73;;;15.70;69.50;;;;;;617636;233;26558;-69
2022/05/06 07:47:13;;;;;;;19.33;8.82;;;15.70;69.30;;;;;;617431;233;26627;-68
2022/05/06 07:49:41;;;;;;;8.77;5.53;;;15.90;70.90;;;;;;617439;233;26607;-68
2022/05/06 07:52:09;;;;;;;14.75;6.55;;;16.00;68.50;;;;;;617344;233;26647;-68
2022/05/06 07:54:36;;;;;;;15.60;6.10;;;16.00;68.50;;;;;;617456;233;26611;-68
2022/05/06 07:57:04;;;;;;;5.43;4.03;;;16.10;68.30;;;;;;617478;233;26599;-68
2022/05/06 07:59:31;;;;;;;9.02;4.43;;;16.30;69.90;;;;;;617469;233;26610;-68
2022/05/06 08:04:33;;;;;;;9.05;4.55;;;16.50;67.70;;;;;;617464;233;26623;-68
2022/05/06 08:07:01;;;;;;;9.30;4.85;;;16.50;67.20;;;;;;617355;230;26704;-68
2022/05/06 08:09:28;;;;;;;7.15;4.62;;;16.50;67.70;;;;;;624906;230;26871;-68
2022/05/06 08:11:55;;;;;;;5.95;4.00;;;16.50;67.60;;;;;;622045;230;26637;-67
2022/05/06 08:14:22;;;;;;;7.28;4.10;;;16.40;68.00;;;;;;623621;230;27194;-67
2022/05/06 08:16:50;;;;;;;5.05;3.20;;;16.30;68.50;;;;;;617471;230;26613;-68
2022/05/06 08:19:17;;;;;;;6.37;4.03;;;16.20;67.50;;;;;;621080;230;27284;-67
2022/05/06 08:21:44;;;;;;;9.02;3.87;;;16.00;67.60;;;;;;627780;227;26558;-67
2022/05/06 08:24:12;;;;;;;9.07;4.15;;;16.30;68.10;;;;;;627430;229;26859;-69
2022/05/06 08:26:39;;;;;;;5.70;3.58;;;16.70;66.90;;;;;;626838;229;26556;-68
2022/05/06 08:29:06;;;;;;;6.28;3.83;;;17.10;65.20;;;;;;627150;229;26781;-68
2022/05/06 08:31:37;;;;;;;7.00;4.00;;;16.80;67.20;;;;;;626814;228;26591;-68
2022/05/06 08:34:02;;;;;;;5.35;3.25;;;17.00;68.20;;;;;;626835;229;26607;-68
2022/05/06 08:36:30;;;;;;;4.93;2.78;;;17.40;65.70;;;;;;626876;229;26607;-69
2022/05/06 08:38:57;;;;;;;6.43;3.45;;;17.70;64.20;;;;;;626720;229;26599;-68
2022/05/06 08:41:25;;;;;;;6.35;3.33;;;17.70;64.20;;;;;;626516;229;26559;-68
2022/05/06 08:43:52;;;;;;;5.25;3.55;;;17.90;63.60;;;;;;626556;228;26670;-67
2022/05/06 08:51:36;;;;;;;5.78;3.60;;;17.70;64.10;;;;;;626567;229;26516;-67
2022/05/06 08:54:04;;;;;;;5.80;3.60;;;17.30;62.80;;;;;;626539;229;26556;-68
2022/05/06 08:56:31;;;;;;;5.37;3.45;;;16.90;62.70;;;;;;626516;229;26555;-67
2022/05/06 08:58:59;;;;;;;7.55;3.75;;;17.10;63.10;;;;;;626269;230;26796;-69
2022/05/06 09:01:26;;;;;;;7.68;3.85;;;17.10;63.10;;;;;;626285;230;26551;-68
2022/05/06 09:03:56;;;;;;;6.85;3.45;;;17.10;63.10;;;;;;626329;230;26534;-68
2022/05/06 09:06:24;;;;;;;7.22;3.45;;;17.40;63.50;;;;;;626210;230;26836;-68
2022/05/06 09:08:51;;;;;;;4.95;3.12;;;18.00;62.90;;;;;;626162;230;26558;-68
2022/05/06 09:12:40;;;;;;;8.65;3.87;;;18.20;62.40;;;;;;626377;230;26523;-68
2022/05/06 09:13:52;;;;;;;4.78;3.10;;;18.40;61.20;;;;;;625997;230;26546;-68
2022/05/06 09:18:54;;;;;;;5.45;3.45;;;17.60;62.00;;;;;;626342;230;26891;-68
2022/05/06 09:21:21;;;;;;;5.30;3.28;;;17.40;62.70;;;;;;625724;230;26546;-68
2022/05/06 09:23:48;;;;;;;5.35;3.37;;;17.50;62.50;;;;;;626305;230;26829;-68
2022/05/06 09:26:16;;;;;;;5.78;3.40;;;17.80;62.40;;;;;;626283;230;26548;-68
2022/05/06 09:28:44;;;;;;;4.25;2.45;;;18.10;62.50;;;;;;626202;230;26568;-68
2022/05/06 09:31:12;;;;;;;7.07;3.65;;;18.40;61.50;;;;;;626277;230;26598;-68
2022/05/06 09:33:41;;;;;;;3.35;3.05;;;18.70;60.70;;;;;;627998;227;26621;-68
2022/05/06 09:36:20;;;;;;;4.55;3.35;;;19.00;59.90;;;;;;627423;229;26594;-68
2022/05/06 09:39:02;;;;;;;7.28;3.72;;;18.90;59.80;;;;;;627153;229;26809;-67
2022/05/06 09:41:30;;;;;;;4.47;3.08;;;18.70;59.60;;;;;;625721;226;26577;-67
2022/05/06 09:44:01;;;;;;;7.53;3.78;;;19.00;60.20;;;;;;626835;228;26583;-67
2022/05/06 09:46:28;;;;;;;6.00;3.45;;;18.90;60.00;;;;;;627215;229;26642;-69
2022/05/06 09:48:56;;;;;;;4.45;3.30;;;18.50;59.30;;;;;;627251;229;26578;-69
2022/05/06 09:51:26;;;;;;;4.80;2.90;;;18.20;59.90;;;;;;626918;229;26860;-69
2022/05/06 09:53:53;;;;;;;7.57;3.33;;;18.30;59.20;;;;;;626856;228;26770;-67
2022/05/06 09:56:21;;;;;;;4.15;3.12;;;17.90;59.90;;;;;;627015;228;26534;-68
2022/05/06 09:58:52;;;;;;;4.62;2.83;;;17.90;59.10;;;;;;626957;229;26528;-68
2022/05/06 10:01:21;;;;;;;4.87;2.70;;;18.00;59.70;;;;;;626914;227;26524;-68
2022/05/06 10:03:50;;;;;;;5.20;3.42;;;18.00;59.60;;;;;;626436;228;26592;-68
2022/05/06 10:06:16;;;;;;;3.05;2.58;;;18.30;60.60;;;;;;626520;229;26559;-68
2022/05/06 10:08:44;;;;;;;2.40;2.03;;;18.20;60.50;;;;;;626288;229;26576;-68
2022/05/06 10:11:14;;;;;;;7.62;3.05;;;18.40;59.30;;;;;;626219;230;26562;-67
2022/05/06 10:13:40;;;;;;;6.30;3.45;;;18.40;59.10;;;;;;626232;230;26602;-67
2022/05/06 10:16:08;;;;;;;3.30;2.70;;;18.40;59.60;;;;;;626285;230;26548;-68
2022/05/06 10:18:37;;;;;;;4.70;2.67;;;18.30;59.20;;;;;;626225;230;26572;-68
2022/05/06 10:21:04;;;;;;;3.40;2.80;;;18.50;58.50;;;;;;626332;230;26803;-68
2022/05/06 10:23:42;;;;;;;3.42;2.72;;;18.60;58.50;;;;;;625973;230;26574;-68
2022/05/06 10:26:10;;;;;;;3.20;2.90;;;18.60;58.50;;;;;;626264;230;26550;-68
2022/05/06 10:34:09;;;;;;;3.60;2.33;;;17.90;58.70;;;;;;626321;230;26550;-68
2022/05/06 10:36:44;;;;;;;2.60;2.40;;;18.00;59.70;;;;;;626284;230;26562;-68
2022/05/06 10:39:36;;;;;;;3.67;2.47;;;18.30;58.60;;;;;;626153;228;26563;-68
2022/05/06 10:42:03;;;;;;;4.37;2.45;;;18.50;57.30;;;;;;626129;226;26586;-67
2022/05/06 10:44:33;;;;;;;5.37;2.72;;;18.60;56.80;;;;;;627615;227;26633;-67
2022/05/06 10:47:00;;;;;;;2.60;2.40;;;19.10;57.70;;;;;;627307;229;26612;-68
2022/05/06 10:49:50;;;;;;;2.25;2.00;;;19.20;56.50;;;;;;627227;229;26562;-68
2022/05/06 10:52:40;;;;;;;4.40;2.30;;;19.20;55.80;;;;;;626867;229;26612;-68
2022/05/06 10:55:07;;;;;;;1.90;1.77;;;19.20;55.80;;;;;;626891;229;26598;-68
2022/05/06 10:57:44;;;;;;;3.47;2.58;;;19.80;56.20;;;;;;626819;229;27268;-68
2022/05/06 11:00:12;;;;;;;1.73;1.62;;;20.20;55.30;;;;;;626805;229;26826;-68
2022/05/06 11:02:40;;;;;;;4.70;2.40;;;20.40;55.90;;;;;;626644;229;26606;-68
2022/05/06 11:05:07;;;;;;;1.98;1.85;;;20.70;56.80;;;;;;626556;229;26910;-67
2022/05/06 11:07:35;;;;;;;2.67;2.35;;;20.70;54.10;;;;;;626072;229;26860;-67
2022/05/06 11:10:12;;;;;;;6.60;2.30;;;20.60;55.10;;;;;;621707;229;26570;-66
2022/05/06 11:12:44;;;;;;;6.00;2.35;;;20.90;54.80;;;;;;626874;229;26554;-64
2022/05/06 11:15:13;;;;;;;2.50;2.08;;;21.00;54.50;;;;;;623512;229;26556;-64
2022/05/06 11:17:40;;;;;;;7.15;2.65;;;21.20;54.20;;;;;;625348;229;26559;-64
2022/05/06 11:20:16;;;;;;;2.42;2.10;;;21.50;53.60;;;;;;625937;229;26578;-64
2022/05/06 11:22:48;;;;;;;3.50;2.50;;;20.80;54.00;;;;;;619584;230;26653;-64
2022/05/06 11:25:16;;;;;;;3.67;2.20;;;20.90;54.00;;;;;;623319;230;26629;-64
2022/05/06 11:27:43;;;;;;;2.60;2.33;;;20.90;54.00;;;;;;622729;230;26817;-64
2022/05/06 11:30:14;;;;;;;2.53;2.25;;;20.60;53.80;;;;;;625916;230;26673;-68
2022/05/06 11:32:38;;;;;;;3.47;2.35;;;20.70;53.90;;;;;;624959;230;26588;-64
2022/05/06 11:35:07;;;;;;;3.17;2.40;;;21.00;53.60;;;;;;622224;228;26842;-65
2022/05/06 11:37:34;;;;;;;4.65;2.65;;;20.80;53.40;;;;;;621900;230;26524;-68
2022/05/06 11:42:35;;;;;;;1.95;1.80;;;20.40;52.60;;;;;;622778;230;27173;-71
2022/05/06 11:47:36;;;;;;;2.78;2.45;;;20.30;53.30;;;;;;626196;230;26559;-69
2022/05/06 11:50:03;;;;;;;5.50;2.12;;;20.30;53.10;;;;;;626234;229;26854;-69
2022/05/06 11:52:31;;;;;;;4.32;2.58;;;20.20;53.10;;;;;;627820;229;26645;-69
2022/05/06 11:54:59;;;;;;;3.50;2.17;;;20.20;52.90;;;;;;623393;230;26553;-69
2022/05/06 11:57:27;;;;;;;2.42;2.10;;;20.20;52.70;;;;;;623099;230;26559;-69
2022/05/06 11:59:54;;;;;;;3.25;2.10;;;20.20;52.60;;;;;;625913;230;26627;-69
2022/05/06 12:02:22;;;;;;;2.00;1.80;;;20.30;53.30;;;;;;619057;230;26592;-70
2022/05/06 12:04:49;;;;;;;1.60;1.50;;;20.60;52.20;;;;;;620413;230;26882;-69
2022/05/06 12:07:16;;;;;;;3.70;2.00;;;20.80;53.50;;;;;;626089;229;26612;-70
2022/05/06 12:09:43;;;;;;;2.47;2.00;;;21.00;51.70;;;;;;625780;229;26828;-69
2022/05/06 12:12:11;;;;;;;3.62;1.80;;;20.90;53.20;;;;;;626919;229;26669;-69
2022/05/06 12:14:38;;;;;;;2.15;2.05;;;20.70;54.70;;;;;;623785;230;26530;-69
2022/05/06 12:17:05;;;;;;;2.20;2.00;;;20.50;52.90;;;;;;621784;229;26753;-69
2022/05/06 12:19:43;;;;;;;4.03;2.00;;;20.40;52.90;;;;;;626630;229;26543;-69
2022/05/06 12:22:13;;;;;;;2.05;1.90;;;20.20;53.20;;;;;;626516;229;26597;-70
2022/05/06 12:24:40;;;;;;;2.80;2.00;;;20.10;53.80;;;;;;624356;228;26551;-69
2022/05/06 12:27:08;;;;;;;2.95;2.10;;;19.80;54.40;;;;;;621416;229;26556;-70
2022/05/06 12:29:37;;;;;;;10.43;1.95;;;19.90;54.40;;;;;;625446;229;26580;-69
2022/05/06 12:32:04;;;;;;;3.00;1.80;;;20.30;54.00;;;;;;626043;227;26566;-69
2022/05/06 12:34:32;;;;;;;2.95;1.92;;;20.20;53.90;;;;;;625938;230;26810;-69
2022/05/06 12:37:10;;;;;;;2.55;1.80;;;20.70;52.30;;;;;;625472;230;26566;-69
2022/05/06 12:39:39;;;;;;;4.05;1.70;;;21.00;51.80;;;;;;620635;230;26609;-70
2022/05/06 12:42:12;;;;;;;2.08;1.87;;;21.20;50.40;;;;;;617304;233;26822;-69
2022/05/06 12:44:39;;;;;;;2.85;1.92;;;21.10;50.00;;;;;;619468;230;26673;-69
2022/05/06 12:47:13;;;;;;;1.83;1.73;;;21.10;52.10;;;;;;618993;230;26658;-70
2022/05/06 12:49:41;;;;;;;4.93;2.10;;;21.50;52.00;;;;;;616825;233;26835;-70
2022/05/06 12:52:10;;;;;;;2.25;2.05;;;21.40;51.90;;;;;;617528;233;26567;-71
2022/05/06 12:54:38;;;;;;;2.87;1.70;;;21.20;51.70;;;;;;617619;233;26584;-70
2022/05/06 12:57:05;;;;;;;4.95;2.05;;;21.20;51.70;;;;;;617624;233;26536;-70
2022/05/06 12:59:32;;;;;;;3.05;1.90;;;20.80;51.80;;;;;;617619;233;26604;-70
2022/05/06 13:01:59;;;;;;;1.98;1.87;;;20.50;52.10;;;;;;617207;233;27353;-70
2022/05/06 13:04:26;;;;;;;2.65;1.90;;;20.20;51.30;;;;;;617492;233;26600;-69
2022/05/06 13:06:54;;;;;;;3.42;1.90;;;20.20;51.10;;;;;;618178;231;26654;-71
2022/05/06 13:09:22;;;;;;;2.67;1.60;;;20.30;51.20;;;;;;618749;232;26870;-71
2022/05/06 13:11:49;;;;;;;3.95;1.85;;;20.40;50.30;;;;;;618439;232;26583;-70
2022/05/06 13:14:16;;;;;;;2.17;1.70;;;20.50;49.50;;;;;;618315;233;26788;-71
2022/05/06 13:16:43;;;;;;;1.80;1.60;;;20.70;48.00;;;;;;618083;233;26614;-71
2022/05/06 13:19:12;;;;;;;2.47;1.73;;;21.30;50.00;;;;;;618054;232;26553;-71
2022/05/06 13:21:39;;;;;;;1.77;1.67;;;23.50;45.60;;;;;;618037;231;26602;-70
2022/05/06 13:24:07;;;;;;;4.07;2.10;;;23.50;45.60;;;;;;618372;233;26583;-71
2022/05/06 13:26:35;;;;;;;2.53;1.75;;;24.90;44.30;;;;;;617859;233;26755;-70
2022/05/06 13:29:03;;;;;;;1.58;1.48;;;27.60;41.10;;;;;;617716;233;26580;-70
2022/05/06 13:31:31;;;;;;;1.62;1.55;;;26.40;40.60;;;;;;617716;233;26553;-71
2022/05/06 13:33:59;;;;;;;1.60;1.50;;;25.00;41.90;;;;;;617662;233;26563;-72
2022/05/06 13:36:26;;;;;;;1.87;1.77;;;25.00;41.90;;;;;;617743;233;26575;-71